Time;durP1;ratioP1;P1;durP2;ratioP2;P2;SDS_P1;SDS_P2;PMS_P1;PMS_P2;Temp;Humidity;BMP_temperature;BMP_pressure;BME280_temperature;BME280_humidity;BME280_pressure;Samples;Min_cycle;Max_cycle;Signal;HPM_P1;HPM_P2
2023/10/27 00:00:57;;;;;;;0.73;0.73;;;;;;;15.33;100.00;98447.53;5090749;28;20192;-66
2023/10/27 00:03:24;;;;;;;0.90;0.90;;;;;;;15.29;100.00;98441.72;5091012;28;20278;-66
2023/10/27 00:05:52;;;;;;;1.23;1.23;;;;;;;15.22;100.00;98445.63;5090800;28;20216;-66
2023/10/27 00:08:19;;;;;;;0.97;0.97;;;;;;;15.21;100.00;98449.16;5086969;28;20695;-66
2023/10/27 00:10:46;;;;;;;1.00;1.00;;;;;;;15.15;100.00;98452.94;5090723;28;20195;-66
2023/10/27 00:13:12;;;;;;;0.93;0.90;;;;;;;15.13;100.00;98446.22;5090373;28;20207;-66
2023/10/27 00:15:39;;;;;;;3.07;1.17;;;;;;;15.11;100.00;98448.06;5090914;28;20620;-66
2023/10/27 00:18:06;;;;;;;2.60;1.20;;;;;;;15.09;100.00;98442.16;5090657;28;20210;-66
2023/10/27 00:20:33;;;;;;;1.00;1.00;;;;;;;15.04;100.00;98441.63;5091000;28;20202;-66
2023/10/27 00:23:01;;;;;;;0.87;0.87;;;;;;;15.01;100.00;98447.81;5090801;28;20675;-66
2023/10/27 00:25:28;;;;;;;1.20;1.20;;;;;;;15.03;100.00;98452.88;5090716;28;20196;-66
2023/10/27 00:27:54;;;;;;;0.80;0.80;;;;;;;15.01;100.00;98442.66;5090650;28;20263;-66
2023/10/27 00:30:21;;;;;;;1.10;1.10;;;;;;;14.99;100.00;98448.84;5090921;28;20651;-66
2023/10/27 00:32:48;;;;;;;0.93;0.93;;;;;;;14.97;100.00;98450.69;5090564;28;20211;-66
2023/10/27 00:35:15;;;;;;;0.80;0.80;;;;;;;14.96;100.00;98452.44;5090898;28;20730;-66
2023/10/27 00:37:42;;;;;;;1.80;1.13;;;;;;;14.94;100.00;98456.88;5090619;28;20248;-66
2023/10/27 00:40:12;;;;;;;0.90;0.90;;;;;;;14.91;100.00;98458.81;5091051;28;20211;-66
2023/10/27 00:42:39;;;;;;;0.90;0.90;;;;;;;14.90;100.00;98460.56;5094270;28;20256;-66
2023/10/27 00:45:06;;;;;;;0.80;0.80;;;;;;;14.88;100.00;98457.25;5094122;28;20251;-66
2023/10/27 00:47:34;;;;;;;1.03;1.03;;;;;;;14.85;100.00;98461.78;5094455;28;20249;-66
2023/10/27 00:50:01;;;;;;;3.93;2.10;;;;;;;14.83;100.00;98453.31;5094348;28;20276;-66
2023/10/27 00:52:30;;;;;;;0.70;0.70;;;;;;;14.79;100.00;98438.94;5094063;28;20234;-66
2023/10/27 00:54:57;;;;;;;2.17;1.40;;;;;;;14.77;100.00;98443.34;5094356;28;20199;-66
2023/10/27 00:57:28;;;;;;;1.30;1.30;;;;;;;14.77;100.00;98448.53;5094160;28;20252;-66
2023/10/27 00:59:55;;;;;;;1.13;1.13;;;;;;;14.73;100.00;98457.41;5094291;28;20195;-66
2023/10/27 01:02:22;;;;;;;1.40;1.30;;;;;;;14.66;100.00;98451.78;5093909;28;20195;-66
2023/10/27 01:04:49;;;;;;;1.43;1.43;;;;;;;14.62;100.00;98456.31;5094205;28;20727;-66
2023/10/27 01:07:16;;;;;;;1.13;1.03;;;;;;;14.60;100.00;98452.97;5093745;28;20251;-66
2023/10/27 01:09:43;;;;;;;1.13;1.13;;;;;;;14.60;100.00;98452.16;5093961;28;20260;-66
2023/10/27 01:12:09;;;;;;;4.40;0.83;;;;;;;14.61;100.00;98451.22;5093544;28;20214;-66
2023/10/27 01:14:38;;;;;;;1.17;1.10;;;;;;;14.63;100.00;98457.97;5093730;28;20269;-66
2023/10/27 01:17:05;;;;;;;2.57;0.97;;;;;;;14.64;100.00;98449.28;5092502;28;20290;-66
2023/10/27 01:19:31;;;;;;;1.33;1.33;;;;;;;14.61;100.00;98440.91;5093203;28;20256;-66
2023/10/27 01:21:58;;;;;;;1.23;1.10;;;;;;;14.62;100.00;98456.31;5093872;28;20708;-66
2023/10/27 01:24:26;;;;;;;1.13;1.13;;;;;;;14.63;100.00;98457.97;5093521;28;20262;-66
2023/10/27 01:26:53;;;;;;;1.10;1.10;;;;;;;14.64;100.00;98449.28;5093463;28;20823;-66
2023/10/27 01:29:20;;;;;;;4.00;1.33;;;;;;;14.64;100.00;98459.59;5093845;28;20277;-66
2023/10/27 01:31:47;;;;;;;6.13;1.40;;;;;;;14.60;100.00;98458.13;5093595;28;20223;-66
2023/10/27 01:34:14;;;;;;;1.23;1.13;;;;;;;14.50;100.00;98436.44;5093305;28;20203;-66
2023/10/27 01:36:41;;;;;;;1.00;1.00;;;;;;;14.59;100.00;98456.50;5093221;28;20240;-66
2023/10/27 01:39:08;;;;;;;1.30;1.13;;;;;;;14.48;100.00;98458.88;5093157;28;20201;-66
2023/10/27 01:41:36;;;;;;;2.07;1.97;;;;;;;14.37;100.00;98450.97;5092128;28;20204;-65
2023/10/27 01:44:03;;;;;;;1.30;1.13;;;;;;;14.35;100.00;98439.91;5093340;28;20636;-65
2023/10/27 01:46:30;;;;;;;1.70;1.70;;;;;;;14.32;100.00;98434.91;5093064;28;20267;-66
2023/10/27 01:48:56;;;;;;;2.33;2.23;;;;;;;14.29;100.00;98437.69;5093365;28;20202;-66
2023/10/27 01:51:23;;;;;;;1.60;1.50;;;;;;;14.29;100.00;98431.69;5092560;28;20272;-66
2023/10/27 01:53:50;;;;;;;1.93;1.83;;;;;;;14.23;100.00;98430.31;5092856;28;20223;-66
2023/10/27 01:56:17;;;;;;;2.17;2.03;;;;;;;14.22;100.00;98426.06;5092855;28;20206;-66
2023/10/27 01:58:45;;;;;;;1.30;1.30;;;;;;;14.23;100.00;98432.91;5092612;28;20203;-66
2023/10/27 02:01:12;;;;;;;1.90;1.80;;;;;;;14.24;100.00;98439.72;5092848;28;20673;-66
2023/10/27 02:03:39;;;;;;;1.13;1.13;;;;;;;14.25;100.00;98446.50;5092620;28;20198;-65
2023/10/27 02:06:06;;;;;;;1.73;1.23;;;;;;;14.26;100.00;98443.03;5092915;28;20624;-66
2023/10/27 02:08:35;;;;;;;2.33;1.77;;;;;;;14.27;100.00;98439.53;5093151;28;20252;-65
2023/10/27 02:11:01;;;;;;;1.50;1.50;;;;;;;14.31;100.00;98448.75;5092044;28;20216;-66
2023/10/27 02:13:28;;;;;;;2.10;2.00;;;;;;;14.32;100.00;98449.56;5092196;28;20275;-66
2023/10/27 02:15:56;;;;;;;1.73;1.63;;;;;;;14.32;100.00;98457.28;5092401;28;20199;-66
2023/10/27 02:18:23;;;;;;;2.30;2.20;;;;;;;14.33;100.00;98454.66;5092440;28;20206;-66
2023/10/27 02:20:50;;;;;;;1.30;1.30;;;;;;;14.33;100.00;98449.50;5092368;28;20199;-65
2023/10/27 02:23:17;;;;;;;2.90;2.00;;;;;;;14.27;100.00;98452.44;5092491;28;20632;-65
2023/10/27 02:25:44;;;;;;;1.40;1.30;;;;;;;14.27;100.00;98447.28;5092307;28;20192;-65
2023/10/27 02:28:10;;;;;;;5.10;2.23;;;;;;;14.25;100.00;98449.09;5092583;28;20657;-65
2023/10/27 02:30:37;;;;;;;3.33;2.27;;;;;;;14.21;100.00;98450.22;5092298;28;20265;-66
2023/10/27 02:33:05;;;;;;;2.13;1.83;;;;;;;14.22;100.00;98448.47;5092234;28;20207;-66
2023/10/27 02:35:32;;;;;;;4.20;1.23;;;;;;;14.21;100.00;98439.91;5092176;28;20199;-66
2023/10/27 02:37:58;;;;;;;3.83;1.70;;;;;;;14.16;100.00;98441.91;5092029;28;20630;-66
2023/10/27 02:40:25;;;;;;;7.70;1.77;;;;;;;14.11;100.00;98441.38;5091975;28;20669;-65
2023/10/27 02:42:52;;;;;;;2.00;1.90;;;;;;;14.12;100.00;98440.44;5091651;28;20271;-65
2023/10/27 02:45:18;;;;;;;4.73;1.80;;;;;;;14.11;100.00;98433.66;5092131;28;20200;-66
2023/10/27 02:47:45;;;;;;;1.77;1.70;;;;;;;14.13;100.00;98436.94;5091928;28;20252;-65
2023/10/27 02:50:14;;;;;;;1.73;1.67;;;;;;;14.14;100.00;98443.78;5091931;28;20197;-66
2023/10/27 02:52:40;;;;;;;1.13;1.13;;;;;;;14.16;100.00;98444.50;5091514;28;20225;-66
2023/10/27 02:55:08;;;;;;;1.70;1.60;;;;;;;14.13;100.00;98447.25;5091964;28;20197;-66
2023/10/27 02:57:35;;;;;;;2.13;2.03;;;;;;;14.11;100.00;98441.38;5091745;28;20671;-66
2023/10/27 03:00:02;;;;;;;5.30;2.10;;;;;;;14.13;100.00;98442.09;5091747;28;20648;-66
2023/10/27 03:02:29;;;;;;;1.60;1.50;;;;;;;14.11;100.00;98434.47;5091344;28;20202;-66
2023/10/27 03:04:57;;;;;;;1.23;1.23;;;;;;;14.13;100.00;98436.94;5091274;28;20198;-66
2023/10/27 03:07:25;;;;;;;3.03;1.87;;;;;;;14.16;100.00;98444.50;5091695;28;20199;-66
2023/10/27 03:09:52;;;;;;;2.47;2.37;;;;;;;14.16;100.00;98436.75;5091776;28;20257;-66
2023/10/27 03:12:19;;;;;;;1.63;1.60;;;;;;;14.13;100.00;98442.09;5091143;28;20195;-67
2023/10/27 03:14:46;;;;;;;2.47;1.83;;;;;;;14.14;100.00;98438.63;5091439;28;20295;-66
2023/10/27 03:17:12;;;;;;;1.37;1.37;;;;;;;14.16;100.00;98441.91;5091391;28;20267;-66
2023/10/27 03:19:39;;;;;;;3.47;2.10;;;;;;;14.14;100.00;98444.59;5091375;28;20225;-66
2023/10/27 03:22:06;;;;;;;1.47;1.37;;;;;;;14.14;100.00;98428.31;5091488;28;20673;-66
2023/10/27 03:24:34;;;;;;;1.57;1.57;;;;;;;14.09;100.00;98430.31;5091403;28;20241;-66
2023/10/27 03:27:01;;;;;;;1.03;1.03;;;;;;;14.10;100.00;98432.81;5091295;28;20210;-66
2023/10/27 03:29:28;;;;;;;3.33;2.10;;;;;;;14.07;100.00;98419.28;5091443;28;20222;-66
2023/10/27 03:31:54;;;;;;;1.77;1.70;;;;;;;14.17;100.00;98433.28;5091082;28;20302;-66
2023/10/27 03:34:21;;;;;;;1.87;1.70;;;;;;;14.18;100.00;98429.78;5091262;28;20336;-66
2023/10/27 03:36:48;;;;;;;1.97;1.87;;;;;;;14.20;100.00;98433.91;5091124;28;20195;-66
2023/10/27 03:39:14;;;;;;;3.40;1.47;;;;;;;14.22;100.00;98431.22;5091004;28;20628;-65
2023/10/27 03:41:42;;;;;;;2.73;2.53;;;;;;;14.24;100.00;98438.88;5090973;28;20193;-65
2023/10/27 03:44:10;;;;;;;2.63;2.53;;;;;;;14.23;100.00;98438.06;5090989;28;20636;-66
2023/10/27 03:46:37;;;;;;;1.93;1.80;;;;;;;14.23;100.00;98438.06;5091158;28;20197;-66
2023/10/27 03:49:04;;;;;;;2.27;2.17;;;;;;;14.22;100.00;98435.59;5090939;28;20198;-66
2023/10/27 03:51:32;;;;;;;1.27;1.27;;;;;;;14.18;100.00;98440.09;5090833;28;20280;-65
2023/10/27 03:53:59;;;;;;;1.60;1.50;;;;;;;14.18;100.00;98430.59;5090890;28;20272;-65
2023/10/27 03:56:25;;;;;;;1.23;1.23;;;;;;;14.20;100.00;98425.34;5089575;28;20251;-66
2023/10/27 03:58:54;;;;;;;2.27;1.87;;;;;;;14.21;100.00;98427.03;5091202;28;20649;-66
2023/10/27 04:01:21;;;;;;;2.43;2.10;;;;;;;14.20;100.00;98426.19;5090722;28;20719;-65
2023/10/27 04:03:48;;;;;;;2.17;2.07;;;;;;;14.18;100.00;98424.63;5091150;28;20191;-66
2023/10/27 04:06:15;;;;;;;1.93;1.77;;;;;;;14.17;100.00;98426.38;5090542;28;20264;-65
2023/10/27 04:08:42;;;;;;;4.07;3.80;;;;;;;14.19;100.00;98427.09;5090942;28;20250;-66
2023/10/27 04:11:08;;;;;;;5.43;1.63;;;;;;;14.20;100.00;98433.09;5090605;28;20199;-66
2023/10/27 04:13:35;;;;;;;2.77;2.67;;;;;;;14.20;100.00;98433.09;5090316;28;20644;-66
2023/10/27 04:16:03;;;;;;;1.97;1.87;;;;;;;14.17;100.00;98431.53;5094850;28;20206;-66
2023/10/27 04:18:30;;;;;;;3.03;2.83;;;;;;;14.20;100.00;98427.94;5094693;28;20205;-66
2023/10/27 04:20:57;;;;;;;2.20;2.00;;;;;;;14.17;100.00;98423.78;5094976;28;20202;-66
2023/10/27 04:23:24;;;;;;;1.63;1.20;;;;;;;14.13;100.00;98422.31;5094511;28;20202;-65
2023/10/27 04:25:52;;;;;;;2.10;1.83;;;;;;;14.11;100.00;98413.03;5094862;28;20268;-66
2023/10/27 04:28:18;;;;;;;2.00;1.90;;;;;;;14.09;100.00;98420.84;5094571;28;20644;-65
2023/10/27 04:30:45;;;;;;;2.13;1.53;;;;;;;14.09;100.00;98420.00;5094548;28;20225;-65
2023/10/27 04:33:15;;;;;;;2.47;2.27;;;;;;;14.05;100.00;98414.22;5094557;28;20272;-65
2023/10/27 04:35:42;;;;;;;1.63;1.50;;;;;;;14.07;100.00;98411.53;5094656;28;20237;-65
2023/10/27 04:38:09;;;;;;;1.47;1.37;;;;;;;14.01;100.00;98401.59;5094214;28;20199;-65
2023/10/27 04:40:36;;;;;;;2.03;2.00;;;;;;;13.96;100.00;98404.44;5093778;28;20199;-65
2023/10/27 04:43:03;;;;;;;2.47;2.37;;;;;;;13.94;100.00;98392.59;5094716;28;20203;-65
2023/10/27 04:45:30;;;;;;;3.30;1.90;;;;;;;13.89;100.00;98386.88;5094166;28;20198;-65
2023/10/27 04:47:57;;;;;;;11.33;2.97;;;;;;;13.86;100.00;98390.44;5094510;28;20195;-65
2023/10/27 04:50:25;;;;;;;3.70;2.20;;;;;;;13.85;100.00;98400.88;5093871;28;20248;-65
2023/10/27 04:52:52;;;;;;;4.80;3.07;;;;;;;13.89;100.00;98408.34;5094119;28;20659;-65
2023/10/27 04:55:19;;;;;;;2.93;2.73;;;;;;;13.91;100.00;98416.78;5094073;28;20206;-66
2023/10/27 04:57:45;;;;;;;2.67;2.47;;;;;;;13.92;100.00;98412.47;5094011;28;20282;-65
2023/10/27 05:00:13;;;;;;;2.60;2.43;;;;;;;13.95;100.00;98404.56;5094352;28;20742;-65
2023/10/27 05:02:40;;;;;;;2.97;1.63;;;;;;;13.94;100.00;98410.63;5094020;28;20624;-65
2023/10/27 05:05:08;;;;;;;2.60;2.23;;;;;;;13.95;100.00;98417.44;5093985;28;20257;-65
2023/10/27 05:07:37;;;;;;;3.40;2.77;;;;;;;13.98;100.00;98422.41;5093919;28;20224;-66
2023/10/27 05:10:07;;;;;;;2.60;2.47;;;;;;;13.98;100.00;98414.69;5093778;28;20256;-66
2023/10/27 05:12:36;;;;;;;2.83;2.73;;;;;;;13.98;100.00;98419.84;5093791;28;20205;-65
2023/10/27 05:15:03;;;;;;;3.50;2.53;;;;;;;13.99;100.00;98414.56;5093768;28;20215;-65
2023/10/27 05:17:30;;;;;;;2.13;2.03;;;;;;;13.95;100.00;98417.44;5093672;28;20290;-65
2023/10/27 05:19:56;;;;;;;3.70;3.40;;;;;;;13.89;100.00;98407.50;5093608;28;20744;-65
2023/10/27 05:22:24;;;;;;;4.10;2.73;;;;;;;13.77;100.00;98403.03;5093676;28;20278;-65
2023/10/27 05:24:52;;;;;;;2.90;2.20;;;;;;;13.81;100.00;98405.38;5093441;28;20278;-65
2023/10/27 05:27:18;;;;;;;1.30;1.20;;;;;;;13.82;100.00;98412.19;5090108;28;20203;-65
2023/10/27 05:29:45;;;;;;;1.90;1.80;;;;;;;13.84;100.00;98414.66;5093394;28;20209;-65
2023/10/27 05:32:13;;;;;;;1.57;1.57;;;;;;;13.83;100.00;98426.69;5093493;28;20198;-65
2023/10/27 05:34:39;;;;;;;1.47;1.47;;;;;;;13.89;100.00;98428.09;5093477;28;20307;-65
2023/10/27 05:37:06;;;;;;;6.93;3.30;;;;;;;13.94;100.00;98436.38;5093239;28;20231;-65
2023/10/27 05:39:33;;;;;;;1.77;1.67;;;;;;;13.98;100.00;98437.88;5093605;28;20194;-67
2023/10/27 05:42:01;;;;;;;5.17;1.90;;;;;;;14.00;100.00;98441.16;5093014;28;20246;-65
2023/10/27 05:44:28;;;;;;;3.03;2.80;;;;;;;13.97;100.00;98442.19;5093414;28;20663;-65
2023/10/27 05:46:55;;;;;;;3.80;3.60;;;;;;;14.01;100.00;98438.50;5093153;28;20659;-65
2023/10/27 05:49:21;;;;;;;2.13;2.03;;;;;;;14.03;100.00;98446.13;5093099;28;20256;-65
2023/10/27 05:51:48;;;;;;;1.77;1.67;;;;;;;14.09;100.00;98441.44;5092661;28;20287;-65
2023/10/27 05:54:15;;;;;;;1.27;1.27;;;;;;;14.05;100.00;98444.31;5093016;28;20216;-65
2023/10/27 05:56:41;;;;;;;6.70;1.63;;;;;;;14.20;100.00;98448.56;5092964;28;20246;-65
2023/10/27 05:59:10;;;;;;;15.03;2.43;;;;;;;14.25;100.00;98431.03;5093002;28;20208;-65
2023/10/27 06:01:36;;;;;;;4.93;2.53;;;;;;;14.26;100.00;98430.13;5093011;28;20683;-65
2023/10/27 06:04:03;;;;;;;2.83;2.63;;;;;;;14.30;100.00;98434.19;5092545;28;20195;-66
2023/10/27 06:06:30;;;;;;;5.70;2.23;;;;;;;14.29;100.00;98421.38;5093017;28;20552;-65
2023/10/27 06:08:57;;;;;;;3.70;2.83;;;;;;;14.22;100.00;98410.63;5092357;28;20195;-65
2023/10/27 06:11:24;;;;;;;2.87;2.67;;;;;;;14.34;100.00;98415.09;5092822;28;20574;-65
2023/10/27 06:13:51;;;;;;;4.43;2.77;;;;;;;14.45;100.00;98415.22;5092481;28;20207;-66
2023/10/27 06:16:19;;;;;;;2.60;2.40;;;;;;;14.44;100.00;98420.50;5092449;28;20251;-66
2023/10/27 06:18:46;;;;;;;2.50;2.37;;;;;;;14.47;100.00;98421.16;5092719;28;20205;-66
2023/10/27 06:21:12;;;;;;;4.37;1.67;;;;;;;14.55;100.00;98429.22;5092467;28;20633;-66
2023/10/27 06:23:39;;;;;;;3.40;2.13;;;;;;;14.64;100.00;98433.81;5092706;28;20268;-66
2023/10/27 06:26:06;;;;;;;2.30;2.20;;;;;;;14.67;100.00;98446.50;5091992;28;20199;-65
2023/10/27 06:28:34;;;;;;;1.00;1.00;;;;;;;14.75;100.00;98443.47;5092520;28;20685;-66
2023/10/27 06:31:01;;;;;;;1.70;1.70;;;;;;;14.80;100.00;98448.34;5091924;28;20241;-66
2023/10/27 06:33:32;;;;;;;1.80;1.70;;;;;;;14.90;100.00;98445.09;5091740;28;20195;-65
2023/10/27 06:35:59;;;;;;;2.33;2.13;;;;;;;14.89;100.00;98447.78;5092177;28;20195;-66
2023/10/27 06:38:25;;;;;;;2.63;2.53;;;;;;;15.12;100.00;98454.91;5091994;28;20207;-66
2023/10/27 06:40:52;;;;;;;5.80;3.10;;;;;;;15.20;100.00;98437.16;5092298;28;20700;-66
2023/10/27 06:43:19;;;;;;;2.07;1.97;;;;;;;15.29;100.00;98433.97;5092050;28;20203;-66
2023/10/27 06:45:46;;;;;;;2.13;2.03;;;;;;;15.32;100.00;98431.19;5092100;28;20623;-66
2023/10/27 06:48:12;;;;;;;1.37;1.30;;;;;;;15.32;100.00;98414.88;5091941;28;20655;-65
2023/10/27 06:50:41;;;;;;;3.30;1.67;;;;;;;15.45;100.00;98437.22;5091823;28;21350;-65
2023/10/27 06:53:08;;;;;;;2.77;1.20;;;;;;;15.59;100.00;98429.44;5091662;28;20282;-65
2023/10/27 06:55:34;;;;;;;2.53;2.43;;;;;;;15.66;100.00;98422.13;5091762;28;20268;-67
2023/10/27 06:58:03;;;;;;;2.07;2.07;;;;;;;15.69;100.00;98424.50;5091496;28;20261;-66
2023/10/27 07:00:30;;;;;;;1.90;1.80;;;;;;;15.84;100.00;98438.97;5091709;28;20195;-66
2023/10/27 07:02:57;;;;;;;1.30;1.30;;;;;;;15.88;100.00;98418.91;5091648;28;20199;-66
2023/10/27 07:05:23;;;;;;;2.33;2.13;;;;;;;15.97;100.00;98439.81;5091717;28;20628;-66
2023/10/27 07:07:52;;;;;;;2.53;1.20;;;;;;;16.10;100.00;98424.28;5091573;28;20228;-66
2023/10/27 07:10:18;;;;;;;1.60;1.50;;;;;;;16.24;100.00;98426.78;5091593;28;20253;-66
2023/10/27 07:12:45;;;;;;;7.50;1.73;;;;;;;16.34;100.00;98420.03;5091446;28;20260;-66
2023/10/27 07:15:13;;;;;;;1.50;1.43;;;;;;;16.45;100.00;98414.09;5091400;28;20623;-66
2023/10/27 07:17:40;;;;;;;2.23;2.13;;;;;;;16.57;100.00;98401.19;5091394;28;20195;-66
2023/10/27 07:20:09;;;;;;;2.90;2.27;;;;;;;16.66;100.00;98397.94;5091332;28;20249;-67
2023/10/27 07:22:35;;;;;;;1.43;1.43;;;;;;;16.82;100.00;98391.69;5091210;28;20282;-66
2023/10/27 07:25:04;;;;;;;1.73;1.63;;;;;;;16.97;100.00;98400.94;5091512;28;20644;-66
2023/10/27 07:27:31;;;;;;;4.40;1.77;;;;;;;17.13;100.00;98417.84;5090834;28;20203;-66
2023/10/27 07:29:58;;;;;;;2.23;2.03;;;;;;;17.29;100.00;98422.72;5091170;28;20666;-66
2023/10/27 07:32:24;;;;;;;8.00;2.03;;;;;;;17.42;100.00;98428.66;5091375;28;20248;-66
2023/10/27 07:34:51;;;;;;;1.23;1.23;;;;;;;17.53;100.00;98426.13;5091096;28;20212;-66
2023/10/27 07:37:20;;;;;;;9.87;1.97;;;;;;;17.58;100.00;98429.22;5091143;28;20265;-66
2023/10/27 07:39:47;;;;;;;1.20;1.20;;;;;;;17.71;100.00;98427.38;5090984;28;20285;-66
2023/10/27 07:42:15;;;;;;;2.33;2.03;;;;;;;17.87;100.00;98424.47;5091136;28;20586;-66
2023/10/27 07:44:42;;;;;;;2.40;1.87;;;;;;;17.96;100.00;98410.00;5091051;28;20191;-66
2023/10/27 07:47:09;;;;;;;1.80;1.70;;;;;;;18.06;100.00;98408.34;5091298;28;20250;-66
2023/10/27 07:49:36;;;;;;;8.07;1.70;;;;;;;18.10;100.00;98399.38;5090681;28;20204;-66
2023/10/27 07:52:03;;;;;;;2.23;2.13;;;;;;;18.12;100.00;98387.13;5090284;28;20255;-66
2023/10/27 07:54:30;;;;;;;4.93;2.73;;;;;;;18.20;100.00;98389.94;5088315;28;20675;-66
2023/10/27 07:56:59;;;;;;;2.17;2.07;;;;;;;18.22;100.00;98382.91;5090894;28;20200;-66
2023/10/27 07:59:27;;;;;;;2.50;2.20;;;;;;;18.29;100.00;98384.03;5091075;28;20248;-66
2023/10/27 08:01:54;;;;;;;6.27;3.53;;;;;;;18.34;100.00;98376.75;5089929;28;20202;-66
2023/10/27 08:04:23;;;;;;;3.53;2.73;;;;;;;18.40;100.00;98383.22;5090616;28;20251;-66
2023/10/27 08:06:50;;;;;;;3.67;3.40;;;;;;;18.47;100.00;98387.81;5090333;28;20203;-66
2023/10/27 08:09:16;;;;;;;4.63;4.33;;;;;;;18.59;100.00;98391.25;5090847;28;20208;-66
2023/10/27 08:11:43;;;;;;;2.73;2.00;;;;;;;18.62;100.00;98391.81;5090814;28;20552;-66
2023/10/27 08:14:10;;;;;;;1.80;1.37;;;;;;;18.59;100.00;98384.28;5091337;28;20293;-66
2023/10/27 08:16:38;;;;;;;5.03;2.53;;;;;;;18.55;100.00;98371.66;5090956;28;20197;-66
2023/10/27 08:19:05;;;;;;;2.07;1.97;;;;;;;18.76;100.00;98382.94;5090791;28;20250;-67
2023/10/27 08:21:31;;;;;;;6.30;2.40;;;;;;;18.79;100.00;98380.94;5090707;28;20322;-67
2023/10/27 08:23:58;;;;;;;2.87;2.60;;;;;;;18.77;100.00;98376.81;5090376;28;20270;-66
2023/10/27 08:26:24;;;;;;;10.03;2.87;;;;;;;18.81;99.97;98379.03;5090806;28;20192;-66
2023/10/27 08:28:51;;;;;;;2.57;2.37;;;;;;;18.82;100.00;98370.31;5090548;28;20199;-66
2023/10/27 08:31:18;;;;;;;4.20;4.00;;;;;;;18.85;99.78;98374.44;5090724;28;20199;-67
2023/10/27 08:33:46;;;;;;;6.97;3.53;;;;;;;18.79;99.93;98367.97;5090733;28;20574;-67
2023/10/27 08:36:14;;;;;;;5.57;2.13;;;;;;;18.81;99.41;98357.44;5090628;28;20223;-66
2023/10/27 08:38:41;;;;;;;3.27;2.00;;;;;;;18.82;99.00;98367.72;5090721;28;20203;-66
2023/10/27 08:41:09;;;;;;;3.07;2.63;;;;;;;18.85;98.79;98372.66;5090521;28;20194;-67
2023/10/27 08:43:38;;;;;;;6.47;1.70;;;;;;;18.86;98.59;98366.53;5090654;28;20677;-67
2023/10/27 08:46:05;;;;;;;3.07;2.10;;;;;;;18.83;98.01;98366.78;5090448;28;20202;-67
2023/10/27 08:48:33;;;;;;;5.23;1.87;;;;;;;18.78;99.10;98355.91;5090647;28;20203;-67
2023/10/27 08:51:04;;;;;;;2.57;2.47;;;;;;;18.80;98.01;98354.00;5089945;28;20225;-66
2023/10/27 08:53:31;;;;;;;3.57;2.33;;;;;;;18.86;98.39;98357.91;5090453;28;20259;-67
2023/10/27 08:55:59;;;;;;;1.97;1.87;;;;;;;18.92;96.86;98353.97;5090164;28;20250;-66
2023/10/27 08:58:26;;;;;;;1.67;1.60;;;;;;;19.07;97.97;98360.53;5090528;28;20205;-67
2023/10/27 09:00:52;;;;;;;1.60;1.50;;;;;;;19.24;96.20;98362.59;5090898;28;20257;-67
2023/10/27 09:03:19;;;;;;;2.03;1.90;;;;;;;19.25;96.33;98348.66;5093576;28;20696;-67
2023/10/27 09:05:46;;;;;;;1.37;1.37;;;;;;;19.45;95.06;98366.03;5094073;28;20263;-67
2023/10/27 09:08:14;;;;;;;2.37;1.90;;;;;;;19.65;95.97;98357.41;5092999;28;20248;-67
2023/10/27 09:10:41;;;;;;;5.13;1.57;;;;;;;19.88;93.23;98338.09;5093987;28;20196;-67
2023/10/27 09:13:09;;;;;;;5.10;1.63;;;;;;;20.04;92.01;98336.78;5093514;28;20252;-66
2023/10/27 09:15:42;;;;;;;1.53;1.17;;;;;;;20.17;92.29;98353.00;5093460;28;20210;-65
2023/10/27 09:18:09;;;;;;;5.07;1.80;;;;;;;20.39;92.93;98364.06;5093208;28;20241;-65
2023/10/27 09:20:47;;;;;;;4.37;1.93;;;;;;;20.62;91.23;98364.66;5093795;28;20238;-65
2023/10/27 09:23:15;;;;;;;2.20;2.07;;;;;;;20.69;89.58;98339.75;5093729;28;20203;-65
2023/10/27 09:25:42;;;;;;;2.20;2.10;;;;;;;20.87;88.47;98332.88;5094317;28;20198;-66
2023/10/27 09:28:11;;;;;;;1.53;1.40;;;;;;;20.89;86.77;98332.75;5093536;28;20199;-64
2023/10/27 09:30:39;;;;;;;1.10;1.10;;;;;;;21.06;87.71;98336.47;5093615;28;20237;-65
2023/10/27 09:33:15;;;;;;;3.57;2.23;;;;;;;21.19;86.21;98331.84;5093601;28;20199;-65
2023/10/27 09:35:42;;;;;;;1.63;1.63;;;;;;;21.15;85.49;98320.03;5093484;28;20213;-64
2023/10/27 09:38:09;;;;;;;1.50;1.50;;;;;;;21.15;85.78;98320.03;5093412;28;20240;-64
2023/10/27 09:40:38;;;;;;;1.57;1.57;;;;;;;21.17;85.39;98324.13;5093358;28;20197;-65
2023/10/27 09:43:08;;;;;;;1.23;1.23;;;;;;;21.26;84.88;98327.72;5093400;28;20235;-65
2023/10/27 09:45:37;;;;;;;1.00;1.00;;;;;;;21.25;84.74;98313.88;5093682;28;20198;-64
2023/10/27 09:48:07;;;;;;;1.37;1.37;;;;;;;21.23;84.44;98323.59;5093660;28;20199;-65
2023/10/27 09:50:34;;;;;;;1.57;1.57;;;;;;;21.25;84.29;98316.47;5093124;28;20204;-65
2023/10/27 09:53:02;;;;;;;1.93;1.57;;;;;;;21.33;84.40;98318.34;5093343;28;20200;-65
2023/10/27 09:55:30;;;;;;;1.10;1.07;;;;;;;21.22;84.52;98284.63;5093334;28;20219;-65
2023/10/27 09:57:59;;;;;;;1.40;1.30;;;;;;;21.39;85.22;98302.16;5093379;28;20203;-64
2023/10/27 10:00:28;;;;;;;1.47;1.40;;;;;;;21.29;84.59;98309.19;5092972;28;20278;-65
2023/10/27 10:02:57;;;;;;;2.10;2.00;;;;;;;21.45;86.55;98312.84;5091009;28;20199;-66
2023/10/27 10:05:24;;;;;;;1.40;1.40;;;;;;;21.63;85.30;98299.91;5093205;28;20195;-65
2023/10/27 10:07:56;;;;;;;1.50;1.40;;;;;;;21.65;83.27;98266.66;5092902;28;20645;-64
2023/10/27 10:10:28;;;;;;;3.67;1.27;;;;;;;21.69;82.22;98296.72;5093045;28;20256;-65
2023/10/27 10:13:05;;;;;;;2.23;2.13;;;;;;;21.89;82.87;98280.06;5092616;28;20670;-65
2023/10/27 10:15:34;;;;;;;1.33;1.33;;;;;;;21.97;83.25;98267.09;5092656;28;20268;-65
2023/10/27 10:18:01;;;;;;;1.20;1.20;;;;;;;22.12;81.61;98264.00;5091553;28;20207;-66
2023/10/27 10:21:07;;;;;;;5.40;1.13;;;;;;;22.23;81.86;98256.00;5088642;28;20253;-64
2023/10/27 10:24:17;;;;;;;3.33;1.60;;;;;;;22.27;80.66;98252.09;5089930;28;20256;-66
2023/10/27 10:27:12;;;;;;;2.37;0.93;;;;;;;22.29;80.40;98255.41;5089874;28;20202;-63
2023/10/27 10:30:18;;;;;;;4.80;1.47;;;;;;;22.36;79.82;98246.81;5091095;28;20290;-65
2023/10/27 10:32:45;;;;;;;0.90;0.90;;;;;;;22.42;79.90;98245.41;5087138;28;20203;-65
2023/10/27 10:35:27;;;;;;;1.40;1.27;;;;;;;22.54;79.06;98239.00;5089752;28;20979;-65
2023/10/27 10:37:54;;;;;;;1.43;1.27;;;;;;;22.62;78.45;98239.06;5090732;28;20195;-65
2023/10/27 10:40:24;;;;;;;1.77;1.67;;;;;;;22.63;77.87;98238.09;5090299;28;20245;-66
2023/10/27 10:43:20;;;;;;;1.17;1.17;;;;;;;22.65;77.78;98237.97;5090328;28;20207;-65
2023/10/27 10:45:50;;;;;;;1.73;1.40;;;;;;;22.73;78.25;98236.25;5090527;28;20219;-66
2023/10/27 10:48:18;;;;;;;1.10;1.10;;;;;;;22.77;77.89;98227.16;5091843;28;20290;-66
2023/10/27 10:50:45;;;;;;;1.60;1.50;;;;;;;22.79;77.28;98222.59;5091631;28;20255;-65
2023/10/27 10:53:15;;;;;;;2.27;1.27;;;;;;;22.87;76.94;98240.13;5088937;28;20272;-65
2023/10/27 10:55:43;;;;;;;1.27;1.13;;;;;;;22.93;76.53;98245.56;5091562;28;20303;-66
2023/10/27 10:58:10;;;;;;;1.43;1.10;;;;;;;22.97;76.55;98233.81;5092025;28;20197;-66
2023/10/27 11:00:37;;;;;;;1.13;1.07;;;;;;;23.09;76.05;98244.88;5092058;28;20199;-65
2023/10/27 11:03:09;;;;;;;1.23;1.23;;;;;;;23.05;75.45;98242.69;5091807;28;20195;-65
2023/10/27 11:05:36;;;;;;;1.40;1.30;;;;;;;23.12;75.69;98241.13;5091894;28;20196;-65
2023/10/27 11:08:04;;;;;;;3.27;0.73;;;;;;;23.16;74.34;98234.63;5091357;28;20260;-65
2023/10/27 11:10:32;;;;;;;0.97;0.97;;;;;;;23.25;74.64;98233.69;5091657;28;20662;-65
2023/10/27 11:13:04;;;;;;;1.20;1.20;;;;;;;23.22;74.84;98239.22;5090840;28;20196;-65
2023/10/27 11:15:48;;;;;;;3.37;1.10;;;;;;;23.20;75.60;98241.97;5091643;28;20298;-66
2023/10/27 11:18:17;;;;;;;1.00;0.90;;;;;;;23.22;74.75;98234.00;5090620;28;20282;-66
2023/10/27 11:20:44;;;;;;;1.00;1.00;;;;;;;23.22;75.15;98234.00;5089229;28;20674;-65
2023/10/27 11:23:12;;;;;;;0.87;0.87;;;;;;;23.28;74.57;98243.84;5091027;28;20191;-65
2023/10/27 11:25:39;;;;;;;1.10;1.10;;;;;;;23.28;73.96;98251.69;5091369;28;20195;-65
2023/10/27 11:28:19;;;;;;;0.80;0.80;;;;;;;23.13;73.21;98255.84;5091373;28;20217;-65
2023/10/27 11:31:00;;;;;;;0.80;0.80;;;;;;;23.20;74.07;98249.03;5088608;28;20667;-65